createdAt,value
2022-12-04T00:00:27.507Z,0.10
2022-12-04T00:02:54.371Z,0.09
2022-12-04T00:05:21.238Z,0.07
2022-12-04T00:07:48.482Z,0.05
2022-12-04T00:10:15.482Z,0.05
2022-12-04T00:12:42.703Z,0.09
2022-12-04T00:15:25.140Z,0.07
2022-12-04T00:17:53.137Z,0.08
2022-12-04T00:20:20.028Z,0.10
2022-12-04T00:22:46.946Z,0.08
2022-12-04T00:25:13.768Z,0.06
2022-12-04T00:27:40.600Z,0.05
2022-12-04T00:30:08.449Z,0.06
2022-12-04T00:32:35.248Z,0.08
2022-12-04T00:35:03.574Z,0.09
2022-12-04T00:37:30.403Z,0.08
2022-12-04T00:39:57.383Z,0.05
2022-12-04T00:42:24.343Z,0.04
2022-12-04T00:44:51.056Z,0.05
2022-12-04T00:47:17.937Z,0.06
2022-12-04T00:49:44.761Z,0.08
2022-12-04T00:52:11.464Z,0.07
2022-12-04T00:54:38.179Z,0.05
2022-12-04T00:57:04.913Z,0.04
2022-12-04T00:59:31.629Z,0.04
2022-12-04T01:01:58.415Z,0.04
2022-12-04T01:04:25.178Z,0.05
2022-12-04T01:06:51.906Z,0.08
2022-12-04T01:09:18.926Z,0.06
2022-12-04T01:11:45.934Z,0.05
2022-12-04T01:14:12.674Z,0.07
2022-12-04T01:16:40.893Z,0.07
2022-12-04T01:19:11.894Z,0.05
2022-12-04T01:21:39.765Z,0.09
2022-12-04T01:24:07.561Z,0.12
2022-12-04T01:26:34.566Z,0.10
2022-12-04T01:29:02.010Z,0.09
2022-12-04T01:31:28.871Z,0.08
2022-12-04T01:33:56.000Z,0.10
2022-12-04T01:36:26.324Z,0.10
2022-12-04T01:38:54.389Z,0.10
2022-12-04T01:41:26.477Z,0.09
2022-12-04T01:44:13.712Z,0.08
2022-12-04T01:46:43.565Z,0.07
2022-12-04T01:49:20.929Z,0.08
2022-12-04T01:51:58.648Z,0.09
2022-12-04T01:54:33.956Z,0.06
2022-12-04T01:57:12.455Z,0.05
2022-12-04T01:59:52.381Z,0.06
2022-12-04T02:02:39.848Z,0.07
2022-12-04T02:05:12.194Z,0.05
2022-12-04T02:07:41.140Z,0.06
2022-12-04T02:10:11.621Z,0.08
2022-12-04T02:13:13.226Z,0.09
2022-12-04T02:15:56.526Z,0.05
2022-12-04T02:18:50.293Z,0.04
2022-12-04T02:21:34.581Z,0.05
2022-12-04T02:24:48.253Z,0.04
2022-12-04T02:27:41.161Z,0.04
2022-12-04T02:30:15.541Z,0.03
2022-12-04T02:32:55.070Z,0.03
2022-12-04T02:35:30.503Z,0.04
2022-12-04T02:38:08.507Z,0.03
2022-12-04T02:41:09.834Z,0.06
2022-12-04T02:43:46.061Z,0.05
2022-12-04T02:46:22.340Z,0.05
2022-12-04T02:48:56.003Z,0.06
2022-12-04T02:51:27.170Z,0.09
2022-12-04T02:54:05.969Z,0.08
2022-12-04T02:56:41.541Z,0.09
2022-12-04T02:59:26.601Z,0.12
2022-12-04T03:02:03.113Z,0.10
2022-12-04T03:04:31.062Z,0.10
2022-12-04T03:07:09.653Z,0.12
2022-12-04T03:09:46.635Z,0.09
2022-12-04T03:13:15.555Z,0.11
2022-12-04T03:15:59.160Z,0.10
2022-12-04T03:18:37.846Z,0.10
2022-12-04T03:21:14.648Z,0.10
2022-12-04T03:24:17.862Z,0.10
2022-12-04T03:26:59.352Z,0.09
2022-12-04T03:29:51.966Z,0.09
2022-12-04T03:32:31.750Z,0.13
2022-12-04T03:35:42.818Z,0.13
2022-12-04T03:38:37.259Z,0.11
2022-12-04T03:41:14.333Z,0.11
2022-12-04T03:44:17.909Z,0.11
2022-12-04T03:47:00.485Z,0.10
2022-12-04T03:49:37.971Z,0.09
2022-12-04T03:52:29.889Z,0.07
2022-12-04T03:55:31.183Z,0.07
2022-12-04T03:58:06.667Z,0.07
2022-12-04T04:00:41.447Z,0.13
2022-12-04T04:03:18.421Z,0.11
2022-12-04T04:05:52.229Z,0.10
2022-12-04T04:08:26.771Z,0.09
2022-12-04T04:11:30.312Z,0.10
2022-12-04T04:14:24.145Z,0.09
2022-12-04T04:17:25.237Z,0.08
2022-12-04T04:20:22.508Z,0.07
2022-12-04T04:23:13.360Z,0.11
2022-12-04T04:25:44.250Z,0.09
2022-12-04T04:28:36.403Z,0.06
2022-12-04T04:31:41.507Z,0.07
2022-12-04T04:34:23.253Z,0.11
2022-12-04T04:37:20.541Z,0.10
2022-12-04T04:40:05.096Z,0.09
2022-12-04T04:42:40.245Z,0.10
2022-12-04T04:45:27.587Z,0.10
2022-12-04T04:48:03.107Z,0.08
2022-12-04T04:50:33.173Z,0.06
2022-12-04T04:53:10.822Z,0.06
2022-12-04T04:55:38.993Z,0.06
2022-12-04T04:58:13.208Z,0.07
2022-12-04T05:00:45.715Z,0.08
2022-12-04T05:03:12.418Z,0.08
2022-12-04T05:05:39.161Z,0.07
2022-12-04T05:08:06.126Z,0.08
2022-12-04T05:10:32.985Z,0.11
2022-12-04T05:12:59.695Z,0.08
2022-12-04T05:15:26.410Z,0.10
2022-12-04T05:17:53.102Z,0.11
2022-12-04T05:20:19.847Z,0.09
2022-12-04T05:22:46.652Z,0.12
2022-12-04T05:25:13.505Z,0.12
2022-12-04T05:27:40.312Z,0.12
2022-12-04T05:30:08.083Z,0.13
2022-12-04T05:32:35.041Z,0.12
2022-12-04T05:35:06.362Z,0.11
2022-12-04T05:37:39.454Z,0.14
2022-12-04T05:40:08.190Z,0.18
2022-12-04T05:42:34.964Z,0.19
2022-12-04T05:45:01.737Z,0.20
2022-12-04T05:47:28.543Z,0.19
2022-12-04T05:49:55.597Z,0.16
2022-12-04T05:52:22.525Z,0.16
2022-12-04T05:54:50.075Z,0.16
2022-12-04T05:57:16.836Z,0.15
2022-12-04T05:59:43.560Z,0.16
2022-12-04T06:02:10.357Z,0.16
2022-12-04T06:04:38.496Z,0.15
2022-12-04T06:07:05.329Z,0.15
2022-12-04T06:09:32.288Z,0.16
2022-12-04T06:11:59.153Z,0.15
2022-12-04T06:14:26.062Z,0.15
2022-12-04T06:16:53.134Z,0.15
2022-12-04T06:19:22.310Z,0.14
2022-12-04T06:21:53.212Z,0.13
2022-12-04T06:24:25.010Z,0.10
2022-12-04T06:27:26.259Z,0.10
2022-12-04T06:29:44.920Z,0.10
2022-12-04T06:32:14.035Z,0.14
2022-12-04T06:34:44.654Z,0.15
2022-12-04T06:37:11.426Z,0.16
2022-12-04T06:39:38.145Z,0.15
2022-12-04T06:42:04.961Z,0.16
2022-12-04T06:44:32.059Z,0.16
2022-12-04T06:47:14.688Z,0.16
2022-12-04T06:49:41.503Z,0.16
2022-12-04T06:52:08.478Z,0.18
2022-12-04T06:54:35.246Z,0.17
2022-12-04T06:57:01.965Z,0.18
2022-12-04T06:59:28.697Z,0.18
2022-12-04T07:01:55.538Z,0.18
2022-12-04T07:04:23.264Z,0.18
2022-12-04T07:06:50.057Z,0.19
2022-12-04T07:09:18.240Z,0.23
2022-12-04T07:11:45.946Z,0.21
2022-12-04T07:14:13.779Z,0.23
2022-12-04T07:16:42.678Z,0.22
2022-12-04T07:19:12.791Z,0.23
2022-12-04T07:21:40.350Z,0.22
2022-12-04T07:24:07.326Z,0.21
2022-12-04T07:26:34.055Z,0.23
2022-12-04T07:29:00.980Z,0.23
2022-12-04T07:31:29.729Z,0.24
2022-12-04T07:33:58.343Z,0.25
2022-12-04T07:36:26.705Z,0.26
2022-12-04T07:38:55.619Z,0.29
2022-12-04T07:41:22.873Z,0.29
2022-12-04T07:43:49.713Z,0.31
2022-12-04T07:46:24.383Z,0.31
2022-12-04T07:48:51.588Z,0.33
2022-12-04T07:51:23.543Z,0.32
2022-12-04T07:53:53.287Z,0.31
2022-12-04T07:56:21.158Z,0.32
2022-12-04T07:58:48.308Z,0.30
2022-12-04T08:01:23.883Z,0.30
2022-12-04T08:03:56.303Z,0.32
2022-12-04T08:06:25.343Z,0.37
2022-12-04T08:08:52.934Z,0.39
2022-12-04T08:11:24.706Z,0.40
2022-12-04T08:14:01.391Z,0.42
2022-12-04T08:16:31.870Z,0.46
2022-12-04T08:19:00.132Z,0.49
2022-12-04T08:21:30.790Z,0.49
2022-12-04T08:23:59.390Z,0.49
2022-12-04T08:26:29.915Z,0.52
2022-12-04T08:28:57.873Z,0.53
2022-12-04T08:31:28.912Z,0.55
2022-12-04T08:33:58.782Z,0.53
2022-12-04T08:36:27.331Z,0.56
2022-12-04T08:38:54.874Z,0.56
2022-12-04T08:41:24.606Z,0.61
2022-12-04T08:43:54.805Z,0.63
2022-12-04T08:46:23.036Z,0.64
2022-12-04T08:48:49.839Z,0.63
2022-12-04T08:51:34.664Z,0.62
2022-12-04T08:54:06.550Z,0.65
2022-12-04T08:56:35.542Z,0.70
2022-12-04T08:59:02.436Z,0.73
2022-12-04T09:01:30.566Z,0.73
2022-12-04T09:03:58.132Z,0.74
2022-12-04T09:06:25.168Z,0.80
2022-12-04T09:08:55.415Z,0.84
2022-12-04T09:11:26.148Z,0.83
2022-12-04T09:13:53.953Z,0.83
2022-12-04T09:16:24.477Z,0.83
2022-12-04T09:18:52.440Z,0.83
2022-12-04T09:21:21.986Z,0.82
2022-12-04T09:23:49.725Z,0.82
2022-12-04T09:26:25.672Z,0.80
2022-12-04T09:28:54.213Z,0.82
2022-12-04T09:31:23.424Z,0.77
2022-12-04T09:33:51.277Z,0.75
2022-12-04T09:36:18.591Z,0.75
2022-12-04T09:38:49.397Z,0.73
2022-12-04T09:41:34.048Z,0.75
2022-12-04T09:44:20.319Z,0.71
2022-12-04T09:47:02.041Z,0.69
2022-12-04T09:49:38.299Z,0.69
2022-12-04T09:52:40.364Z,0.68
2022-12-04T09:55:20.607Z,0.67
2022-12-04T09:57:57.053Z,0.65
2022-12-04T10:00:28.356Z,0.63
2022-12-04T10:03:03.866Z,0.62
2022-12-04T10:05:42.808Z,0.63
2022-12-04T10:08:29.742Z,0.60
2022-12-04T10:11:29.146Z,0.57
2022-12-04T10:14:31.278Z,0.59
2022-12-04T10:16:57.916Z,0.58
2022-12-04T10:20:10.098Z,0.62
2022-12-04T10:23:14.195Z,0.63
2022-12-04T10:25:43.529Z,0.61
2022-12-04T10:28:29.419Z,0.64
2022-12-04T10:31:02.539Z,0.60
2022-12-04T10:33:47.563Z,0.59
2022-12-04T10:36:21.556Z,0.61
2022-12-04T10:39:02.891Z,0.60
2022-12-04T10:41:47.110Z,0.60
2022-12-04T10:44:17.241Z,0.58
2022-12-04T10:46:46.184Z,0.58
2022-12-04T10:49:33.382Z,0.58
2022-12-04T10:52:00.860Z,0.58
2022-12-04T10:54:48.455Z,0.60
2022-12-04T10:57:16.789Z,0.57
2022-12-04T10:59:56.337Z,0.57
2022-12-04T11:02:29.020Z,0.60
2022-12-04T11:05:07.996Z,0.61
2022-12-04T11:07:48.129Z,0.65
2022-12-04T11:10:37.637Z,0.68
2022-12-04T11:13:18.377Z,0.69
2022-12-04T11:15:49.088Z,0.70
2022-12-04T11:18:24.059Z,0.67
2022-12-04T11:21:00.614Z,0.69
2022-12-04T11:23:42.127Z,0.69
2022-12-04T11:26:10.539Z,0.68
2022-12-04T11:28:42.218Z,0.70
2022-12-04T11:31:18.200Z,0.68
2022-12-04T11:33:54.276Z,0.72
2022-12-04T11:36:33.843Z,0.70
2022-12-04T11:39:32.279Z,0.73
2022-12-04T11:42:06.919Z,0.75
2022-12-04T11:44:36.818Z,0.75
2022-12-04T11:47:06.962Z,0.76
2022-12-04T11:49:36.549Z,0.76
2022-12-04T11:52:30.304Z,0.78
2022-12-04T11:55:17.981Z,0.78
2022-12-04T11:58:21.641Z,0.75
2022-12-04T12:01:11.063Z,0.74
2022-12-04T12:03:55.681Z,0.75
2022-12-04T12:07:00.591Z,0.75
2022-12-04T12:09:53.209Z,0.80
2022-12-04T12:12:42.462Z,0.81
2022-12-04T12:15:40.633Z,0.80
2022-12-04T12:18:55.532Z,0.82
2022-12-04T12:21:26.917Z,0.83
2022-12-04T12:24:23.900Z,0.83
2022-12-04T12:27:12.677Z,0.83
2022-12-04T12:30:09.733Z,0.84
2022-12-04T12:33:04.158Z,0.89
2022-12-04T12:35:46.960Z,0.91
2022-12-04T12:38:25.972Z,0.95
2022-12-04T12:41:15.518Z,0.99
2022-12-04T12:43:53.414Z,1.02
2022-12-04T12:46:27.656Z,1.05
2022-12-04T12:49:15.485Z,1.04
2022-12-04T12:51:51.711Z,1.04
2022-12-04T12:54:39.491Z,1.07
2022-12-04T12:57:44.165Z,1.06
2022-12-04T13:00:21.556Z,1.09
2022-12-04T13:03:26.090Z,1.09
2022-12-04T13:06:01.050Z,1.17
2022-12-04T13:08:37.811Z,1.18
2022-12-04T13:11:16.444Z,1.18
2022-12-04T13:13:55.181Z,1.15
2022-12-04T13:16:31.209Z,1.14
2022-12-04T13:19:32.567Z,1.11
2022-12-04T13:22:28.088Z,1.11
2022-12-04T13:24:57.612Z,1.11
2022-12-04T13:28:19.471Z,1.08
2022-12-04T13:31:12.196Z,1.13
2022-12-04T13:34:11.460Z,1.14
2022-12-04T13:37:23.108Z,1.13
2022-12-04T13:40:17.902Z,1.13
2022-12-04T13:42:45.161Z,1.12
2022-12-04T13:45:33.592Z,1.12
2022-12-04T13:48:02.907Z,1.11
2022-12-04T13:50:38.328Z,1.10
2022-12-04T13:53:06.696Z,1.13
2022-12-04T13:55:37.924Z,1.15
2022-12-04T13:58:10.502Z,1.17
2022-12-04T14:00:41.769Z,1.18
2022-12-04T14:03:34.309Z,1.15
2022-12-04T14:06:05.500Z,1.18
2022-12-04T14:08:42.716Z,1.18
2022-12-04T14:11:18.405Z,1.18
2022-12-04T14:13:55.058Z,1.19
2022-12-04T14:16:40.980Z,1.20
2022-12-04T14:19:08.817Z,1.20
2022-12-04T14:21:46.880Z,1.19
2022-12-04T14:24:28.212Z,1.20
2022-12-04T14:27:11.099Z,1.24
2022-12-04T14:29:52.658Z,1.25
2022-12-04T14:32:27.801Z,1.25
2022-12-04T14:34:56.611Z,1.24
2022-12-04T14:37:36.061Z,1.22
2022-12-04T14:40:07.322Z,1.20
2022-12-04T14:42:38.437Z,1.21
2022-12-04T14:45:21.799Z,1.26
2022-12-04T14:48:17.739Z,1.24
2022-12-04T14:51:15.143Z,1.28
2022-12-04T14:53:49.680Z,1.29
2022-12-04T14:56:47.788Z,1.29
2022-12-04T14:59:24.182Z,1.26
2022-12-04T15:01:54.951Z,1.26
2022-12-04T15:04:35.357Z,1.29
2022-12-04T15:07:02.636Z,1.29
2022-12-04T15:09:48.292Z,1.30
2022-12-04T15:12:34.684Z,1.29
2022-12-04T15:15:21.944Z,1.28
2022-12-04T15:18:09.826Z,1.31
2022-12-04T15:20:49.977Z,1.28
2022-12-04T15:23:40.404Z,1.30
2022-12-04T15:26:26.837Z,1.29
2022-12-04T15:29:21.802Z,1.29
2022-12-04T15:31:56.890Z,1.28
2022-12-04T15:34:48.113Z,1.31
2022-12-04T15:37:28.781Z,1.34
2022-12-04T15:39:57.268Z,1.34
2022-12-04T15:42:24.477Z,1.35
2022-12-04T15:44:54.724Z,1.34
2022-12-04T15:47:25.415Z,1.35
2022-12-04T15:49:52.583Z,1.35
2022-12-04T15:52:23.398Z,1.37
2022-12-04T15:55:01.106Z,1.40
2022-12-04T15:57:40.026Z,1.39
2022-12-04T16:00:28.583Z,1.38
2022-12-04T16:02:57.294Z,1.41
2022-12-04T16:05:37.445Z,1.39
2022-12-04T16:08:31.556Z,1.37
2022-12-04T16:11:20.365Z,1.34
2022-12-04T16:14:01.304Z,1.34
2022-12-04T16:16:28.342Z,1.34
2022-12-04T16:18:55.578Z,1.38
2022-12-04T16:21:30.597Z,1.40
2022-12-04T16:24:06.456Z,1.40
2022-12-04T16:26:34.068Z,1.39
2022-12-04T16:29:00.963Z,1.41
2022-12-04T16:31:27.914Z,1.43
2022-12-04T16:33:54.956Z,1.44
2022-12-04T16:36:21.721Z,1.42
2022-12-04T16:38:48.457Z,1.43
2022-12-04T16:41:18.892Z,1.44
2022-12-04T16:43:52.776Z,1.47
2022-12-04T16:46:22.541Z,1.46
2022-12-04T16:48:49.411Z,1.46
2022-12-04T16:51:23.039Z,1.48
2022-12-04T16:53:51.916Z,1.48
2022-12-04T16:56:20.033Z,1.47
2022-12-04T16:58:46.977Z,1.47
2022-12-04T17:01:36.193Z,1.50
2022-12-04T17:04:03.260Z,1.53
2022-12-04T17:06:31.910Z,1.50
2022-12-04T17:08:59.236Z,1.50
2022-12-04T17:11:26.077Z,1.48
2022-12-04T17:13:52.909Z,1.46
2022-12-04T17:16:20.067Z,1.45
2022-12-04T17:18:47.017Z,1.42
2022-12-04T17:21:14.737Z,1.44
2022-12-04T17:23:41.856Z,1.40
2022-12-04T17:26:14.843Z,1.39
2022-12-04T17:28:42.166Z,1.40
2022-12-04T17:31:22.109Z,1.42
2022-12-04T17:33:50.111Z,1.41
2022-12-04T17:36:23.489Z,1.38
2022-12-04T17:38:55.695Z,1.37
2022-12-04T17:41:23.383Z,1.37
2022-12-04T17:43:50.161Z,1.33
2022-12-04T17:46:22.899Z,1.32
2022-12-04T17:48:51.991Z,1.31
2022-12-04T17:51:23.149Z,1.29
2022-12-04T17:53:50.137Z,1.27
2022-12-04T17:56:21.871Z,1.28
2022-12-04T17:58:49.815Z,1.29
2022-12-04T18:01:24.804Z,1.27
2022-12-04T18:04:06.264Z,1.27
2022-12-04T18:06:42.841Z,1.29
2022-12-04T18:09:13.384Z,1.29
2022-12-04T18:11:43.836Z,1.29
2022-12-04T18:14:19.932Z,1.30
2022-12-04T18:16:52.917Z,1.30
2022-12-04T18:19:22.664Z,1.34
2022-12-04T18:21:49.996Z,1.34
2022-12-04T18:24:17.757Z,1.33
2022-12-04T18:26:50.841Z,1.32
2022-12-04T18:29:22.301Z,1.33
2022-12-04T18:31:50.950Z,1.34
2022-12-04T18:34:18.177Z,1.33
2022-12-04T18:36:45.629Z,1.35
2022-12-04T18:39:20.361Z,1.34
2022-12-04T18:41:48.231Z,1.37
2022-12-04T18:44:15.540Z,1.39
2022-12-04T18:46:42.495Z,1.40
2022-12-04T18:49:11.335Z,1.40
2022-12-04T18:51:49.278Z,1.40
2022-12-04T18:54:23.454Z,1.40
2022-12-04T18:56:51.390Z,1.42
2022-12-04T18:59:26.018Z,1.41
2022-12-04T19:01:54.606Z,1.41
2022-12-04T19:04:24.854Z,1.44
2022-12-04T19:06:55.622Z,1.43
2022-12-04T19:09:54.424Z,1.43
2022-12-04T19:12:14.292Z,1.42
2022-12-04T19:14:41.104Z,1.40
2022-12-04T19:17:07.925Z,1.40
2022-12-04T19:19:34.698Z,1.45
2022-12-04T19:22:02.187Z,1.45
2022-12-04T19:24:28.959Z,1.46
2022-12-04T19:26:55.778Z,1.47
2022-12-04T19:29:22.615Z,1.49
2022-12-04T19:31:50.766Z,1.48
2022-12-04T19:34:19.128Z,1.51
2022-12-04T19:36:46.067Z,1.56
2022-12-04T19:39:12.797Z,1.53
2022-12-04T19:41:41.278Z,1.51
2022-12-04T19:44:40.233Z,1.51
2022-12-04T19:46:56.890Z,1.54
2022-12-04T19:49:23.599Z,1.52
2022-12-04T19:51:50.685Z,1.49
2022-12-04T19:54:18.299Z,1.50
2022-12-04T19:56:49.063Z,1.53
2022-12-04T19:59:15.820Z,1.52
2022-12-04T20:01:42.624Z,1.53
2022-12-04T20:04:10.761Z,1.55
2022-12-04T20:06:44.233Z,1.58
2022-12-04T20:09:15.659Z,1.60
2022-12-04T20:11:42.668Z,1.60
2022-12-04T20:14:10.380Z,1.63
2022-12-04T20:16:38.588Z,1.62
2022-12-04T20:19:07.550Z,1.61
2022-12-04T20:21:35.030Z,1.64
2022-12-04T20:24:05.672Z,1.63
2022-12-04T20:26:38.594Z,1.62
2022-12-04T20:29:09.855Z,1.61
2022-12-04T20:31:40.923Z,1.61
2022-12-04T20:34:12.918Z,1.61
2022-12-04T20:36:43.750Z,1.62
2022-12-04T20:39:13.400Z,1.62
2022-12-04T20:41:41.113Z,1.61
2022-12-04T20:44:14.994Z,1.60
2022-12-04T20:46:42.767Z,1.63
2022-12-04T20:49:20.607Z,1.63
2022-12-04T20:51:48.869Z,1.64
2022-12-04T20:54:19.152Z,1.66
2022-12-04T20:56:48.602Z,1.67
2022-12-04T20:59:18.151Z,1.68
2022-12-04T21:01:45.362Z,1.70
2022-12-04T21:04:13.077Z,1.76
2022-12-04T21:06:41.163Z,1.74
2022-12-04T21:09:14.265Z,1.71
2022-12-04T21:11:48.256Z,1.71
2022-12-04T21:14:43.673Z,1.68
2022-12-04T21:17:16.737Z,1.66
2022-12-04T21:19:44.494Z,1.66
2022-12-04T21:22:11.384Z,1.67
2022-12-04T21:24:39.211Z,1.67
2022-12-04T21:27:14.409Z,1.64
2022-12-04T21:29:44.005Z,1.64
2022-12-04T21:32:11.148Z,1.60
2022-12-04T21:34:39.022Z,1.59
2022-12-04T21:37:06.265Z,1.60
2022-12-04T21:39:33.063Z,1.63
2022-12-04T21:42:18.240Z,1.64
2022-12-04T21:44:44.856Z,1.66
2022-12-04T21:47:11.541Z,1.66
2022-12-04T21:49:38.703Z,1.67
2022-12-04T21:52:05.569Z,1.67
2022-12-04T21:54:32.339Z,1.66
2022-12-04T21:56:59.292Z,1.70
2022-12-04T21:59:26.526Z,1.68
2022-12-04T22:01:53.963Z,1.69
2022-12-04T22:04:22.019Z,1.69
2022-12-04T22:06:49.293Z,1.66
2022-12-04T22:09:16.814Z,1.65
2022-12-04T22:11:44.176Z,1.64
2022-12-04T22:14:12.725Z,1.65
2022-12-04T22:16:42.671Z,1.68
2022-12-04T22:19:11.953Z,1.66
2022-12-04T22:21:39.676Z,1.67
2022-12-04T22:24:07.478Z,1.68
2022-12-04T22:26:34.363Z,1.69
2022-12-04T22:29:01.234Z,1.68
2022-12-04T22:31:30.230Z,1.68
2022-12-04T22:34:00.675Z,1.67
2022-12-04T22:36:32.123Z,1.68
2022-12-04T22:39:09.923Z,1.70
2022-12-04T22:41:37.770Z,1.71
2022-12-04T22:44:05.121Z,1.70
2022-12-04T22:46:32.425Z,1.71
2022-12-04T22:49:00.196Z,1.71
2022-12-04T22:51:28.014Z,1.74
2022-12-04T22:53:58.035Z,1.75
2022-12-04T22:56:30.863Z,1.78
2022-12-04T22:58:59.384Z,1.80
2022-12-04T23:01:34.241Z,1.81
2022-12-04T23:04:02.845Z,1.81
2022-12-04T23:06:32.483Z,1.83
2022-12-04T23:09:07.497Z,1.85
2022-12-04T23:11:36.331Z,1.86
2022-12-04T23:14:06.504Z,1.87
2022-12-04T23:16:35.661Z,1.90
2022-12-04T23:19:02.687Z,1.89
2022-12-04T23:21:29.650Z,1.89
2022-12-04T23:23:57.368Z,1.88
2022-12-04T23:26:31.933Z,1.86
2022-12-04T23:28:59.589Z,1.87
2022-12-04T23:31:26.383Z,1.88
2022-12-04T23:33:53.399Z,1.89
2022-12-04T23:36:21.227Z,1.88
2022-12-04T23:38:48.475Z,1.91
2022-12-04T23:41:22.672Z,1.95
2022-12-04T23:43:51.970Z,1.95
2022-12-04T23:46:28.888Z,1.92
2022-12-04T23:48:55.780Z,1.98
2022-12-04T23:51:23.058Z,2.01
2022-12-04T23:53:51.420Z,2.00
2022-12-04T23:56:27.741Z,2.03
2022-12-04T23:58:57.480Z,2.03
